Time;durP1;ratioP1;P1;durP2;ratioP2;P2;SDS_P1;SDS_P2;PMS_P1;PMS_P2;Temp;Humidity;BMP_temperature;BMP_pressure;BME280_temperature;BME280_humidity;BME280_pressure;Samples;Min_cycle;Max_cycle;Signal;HPM_P1;HPM_P2
2022/08/30 00:02:22;;;;;;;15.30;13.85;;;;;;;21.14;63.37;100407.38;5067762;28;20405;-66
2022/08/30 00:04:52;;;;;;;15.57;13.85;;;;;;;21.18;63.21;100416.84;5069476;28;20497;-66
2022/08/30 00:07:20;;;;;;;15.07;13.65;;;;;;;21.12;63.05;100401.22;5067669;28;20063;-66
2022/08/30 00:09:47;;;;;;;17.92;14.35;;;;;;;21.11;63.26;100417.44;5070740;28;20136;-67
2022/08/30 00:12:14;;;;;;;16.92;15.38;;;;;;;20.88;63.18;100397.19;5066354;28;20052;-67
2022/08/30 00:14:40;;;;;;;16.88;15.15;;;;;;;20.84;63.32;100416.13;5067168;28;20460;-65
2022/08/30 00:17:07;;;;;;;16.88;14.05;;;;;;;20.84;63.36;100424.63;5070899;28;20075;-67
2022/08/30 00:19:35;;;;;;;16.70;14.95;;;;;;;20.87;63.12;100420.25;5071985;28;20139;-64
2022/08/30 00:22:02;;;;;;;17.15;15.48;;;;;;;20.76;63.32;100400.03;5067246;28;20052;-66
2022/08/30 00:24:30;;;;;;;18.02;14.63;;;;;;;20.79;62.94;100419.19;5073191;28;20087;-66
2022/08/30 00:26:56;;;;;;;18.45;14.20;;;;;;;20.60;62.62;100397.03;5064394;28;20163;-66
2022/08/30 00:29:23;;;;;;;15.65;14.00;;;;;;;20.70;63.18;100426.97;5069925;28;20079;-66
2022/08/30 00:31:50;;;;;;;14.65;13.25;;;;;;;20.59;62.82;100427.44;5071397;28;20052;-65
2022/08/30 00:34:17;;;;;;;14.60;13.18;;;;;;;20.40;62.46;100398.75;5062389;28;20127;-66
2022/08/30 00:36:44;;;;;;;17.58;14.80;;;;;;;20.62;62.32;100427.91;5070916;28;20513;-66
2022/08/30 00:39:11;;;;;;;19.65;14.52;;;;;;;20.56;62.46;100430.97;5070447;28;20128;-66
2022/08/30 00:41:38;;;;;;;24.75;15.98;;;;;;;20.41;62.24;100405.25;5071456;28;20139;-67
2022/08/30 00:44:06;;;;;;;16.75;14.93;;;;;;;20.47;62.23;100416.00;5068626;28;20496;-67
2022/08/30 00:46:33;;;;;;;23.27;16.58;;;;;;;20.44;62.31;100405.38;5068509;28;20048;-67
2022/08/30 00:49:05;;;;;;;20.40;16.75;;;;;;;20.56;62.22;100425.28;5072596;28;20496;-65
2022/08/30 00:51:33;;;;;;;17.65;15.20;;;;;;;20.51;62.18;100417.03;5065497;28;20052;-67
2022/08/30 00:54:00;;;;;;;22.55;16.70;;;;;;;20.52;62.16;100415.00;5071685;28;20155;-66
2022/08/30 00:56:28;;;;;;;20.38;18.27;;;;;;;20.48;62.18;100417.69;5066358;28;20140;-66
2022/08/30 00:58:58;;;;;;;22.92;17.55;;;;;;;20.43;62.17;100420.72;5070648;28;20083;-67
2022/08/30 01:01:26;;;;;;;23.30;17.33;;;;;;;20.38;62.07;100425.81;5070628;28;20139;-66
2022/08/30 01:03:55;;;;;;;24.38;17.92;;;;;;;20.23;62.01;100411.09;5067711;28;20055;-67
2022/08/30 01:06:24;;;;;;;24.33;18.15;;;;;;;20.39;62.14;100444.47;5060550;28;20064;-66
2022/08/30 01:08:59;;;;;;;20.85;16.98;;;;;;;20.28;62.12;100424.25;5072059;28;20064;-66
2022/08/30 01:11:27;;;;;;;20.50;16.77;;;;;;;20.30;62.14;100427.53;5069386;28;20617;-67
2022/08/30 01:13:55;;;;;;;19.17;17.15;;;;;;;20.25;61.99;100419.28;5071095;28;20052;-66
2022/08/30 01:16:24;;;;;;;20.25;16.83;;;;;;;20.21;61.91;100435.31;5065739;28;20139;-66
2022/08/30 01:18:56;;;;;;;24.17;16.80;;;;;;;20.08;62.11;100426.75;5071926;28;20645;-66
2022/08/30 01:21:48;;;;;;;32.67;18.17;;;;;;;20.09;61.78;100431.25;5065801;28;20578;-66
2022/08/30 01:24:16;;;;;;;24.13;16.60;;;;;;;19.94;61.99;100397.88;5064643;28;20670;-66
2022/08/30 01:26:43;;;;;;;18.83;15.80;;;;;;;19.96;62.05;100403.19;5065404;28;20143;-66
2022/08/30 01:29:16;;;;;;;21.30;18.25;;;;;;;20.15;61.93;100429.03;5069259;28;20076;-67
2022/08/30 01:31:43;;;;;;;23.25;16.88;;;;;;;20.08;62.21;100437.28;5070759;28;20082;-67
2022/08/30 01:34:11;;;;;;;20.23;17.38;;;;;;;19.96;62.24;100415.34;5072295;28;20134;-65
2022/08/30 01:36:41;;;;;;;29.67;16.85;;;;;;;20.10;62.42;100432.06;5070272;28;20480;-66
2022/08/30 01:39:13;;;;;;;27.20;17.90;;;;;;;20.09;62.72;100434.09;5071667;28;20067;-66
2022/08/30 01:41:42;;;;;;;25.83;17.40;;;;;;;20.03;62.57;100428.97;5066586;28;20497;-67
2022/08/30 01:44:10;;;;;;;20.00;17.98;;;;;;;20.12;62.84;100438.22;5069272;28;20075;-66
2022/08/30 01:46:42;;;;;;;28.20;19.30;;;;;;;20.13;63.02;100435.03;5067958;28;20080;-66
2022/08/30 01:49:11;;;;;;;29.38;18.23;;;;;;;20.12;62.93;100430.56;5066059;28;20132;-66
2022/08/30 01:51:39;;;;;;;22.25;18.25;;;;;;;20.03;63.11;100421.31;5066958;28;20131;-67
2022/08/30 01:54:06;;;;;;;21.48;17.35;;;;;;;20.09;63.27;100442.59;5068822;28;20136;-67
2022/08/30 01:56:33;;;;;;;22.05;17.23;;;;;;;19.98;63.38;100435.69;5068230;28;20076;-67
2022/08/30 01:59:00;;;;;;;18.85;16.92;;;;;;;19.93;63.91;100443.56;5067547;28;20055;-67
2022/08/30 02:01:32;;;;;;;19.88;15.77;;;;;;;19.79;64.38;100430.50;5065027;28;20488;-66
2022/08/30 02:03:59;;;;;;;16.77;15.30;;;;;;;19.69;64.57;100442.25;5070218;28;20059;-67
2022/08/30 02:06:26;;;;;;;15.13;13.68;;;;;;;19.52;64.40;100414.88;5071247;28;20101;-65
2022/08/30 02:08:54;;;;;;;15.10;13.50;;;;;;;19.71;64.20;100433.41;5068965;28;20044;-67
2022/08/30 02:11:21;;;;;;;14.15;12.88;;;;;;;19.77;64.15;100438.53;5065791;28;20078;-67
2022/08/30 02:13:48;;;;;;;17.40;14.40;;;;;;;19.61;64.24;100424.13;5067987;28;20056;-65
2022/08/30 02:16:21;;;;;;;18.05;14.13;;;;;;;19.76;64.33;100436.88;5068306;28;20467;-66
2022/08/30 02:18:50;;;;;;;14.80;13.52;;;;;;;19.64;64.20;100426.31;5064426;28;20063;-66
2022/08/30 02:21:17;;;;;;;13.40;12.43;;;;;;;19.52;64.35;100436.69;5069652;28;20325;-66
2022/08/30 02:23:44;;;;;;;13.98;12.60;;;;;;;19.45;64.30;100437.22;5069374;28;20127;-66
2022/08/30 02:26:13;;;;;;;14.45;13.20;;;;;;;19.32;64.64;100427.84;5069116;28;20084;-66
2022/08/30 02:28:40;;;;;;;13.80;12.55;;;;;;;19.23;64.56;100440.38;5067124;28;20139;-66
2022/08/30 02:31:20;;;;;;;16.13;12.98;;;;;;;19.11;64.83;100430.63;5062138;28;20053;-67
2022/08/30 02:33:49;;;;;;;12.73;11.85;;;;;;;19.28;64.74;100437.34;5068867;28;20060;-67
2022/08/30 02:36:17;;;;;;;14.95;13.50;;;;;;;19.09;64.59;100410.31;5067082;28;20106;-66
2022/08/30 02:38:45;;;;;;;14.23;12.35;;;;;;;19.02;64.82;100401.53;5068812;28;20049;-67
2022/08/30 02:41:12;;;;;;;15.80;13.20;;;;;;;19.26;64.52;100417.06;5063845;28;20162;-67
2022/08/30 02:43:39;;;;;;;14.85;13.35;;;;;;;19.42;64.15;100443.59;5066110;28;20088;-64
2022/08/30 02:46:06;;;;;;;13.38;12.18;;;;;;;19.16;64.02;100390.78;5066752;28;20127;-66
2022/08/30 02:48:33;;;;;;;14.55;13.15;;;;;;;19.40;63.93;100434.59;5065461;28;20057;-66
2022/08/30 02:51:09;;;;;;;16.70;15.15;;;;;;;19.25;63.44;100376.59;5062779;28;20049;-66
2022/08/30 02:53:38;;;;;;;15.80;13.77;;;;;;;19.70;63.12;100448.78;5065246;28;20060;-66
2022/08/30 02:56:06;;;;;;;15.43;13.65;;;;;;;19.66;62.97;100428.81;5065652;28;20128;-66
2022/08/30 02:58:32;;;;;;;17.98;16.20;;;;;;;19.83;62.67;100453.34;5065035;28;20556;-66
2022/08/30 03:01:00;;;;;;;16.83;14.80;;;;;;;19.78;62.56;100454.34;5067376;28;20040;-66
2022/08/30 03:03:27;;;;;;;14.80;13.43;;;;;;;19.83;62.49;100459.84;5063387;28;20055;-67
2022/08/30 03:05:54;;;;;;;14.68;13.23;;;;;;;19.69;62.09;100449.94;5065877;28;20123;-66
2022/08/30 03:08:21;;;;;;;14.73;13.35;;;;;;;19.59;62.45;100432.16;5065981;28;20131;-66
2022/08/30 03:10:49;;;;;;;16.55;13.52;;;;;;;19.48;62.15;100405.38;5065205;28;20052;-66
2022/08/30 03:13:15;;;;;;;16.90;15.27;;;;;;;19.79;62.14;100438.19;5067011;28;20118;-66
2022/08/30 03:15:43;;;;;;;16.95;14.98;;;;;;;19.79;61.74;100441.00;5068526;28;20082;-66
2022/08/30 03:18:09;;;;;;;20.38;16.30;;;;;;;19.76;62.05;100455.88;5068616;28;20080;-66
2022/08/30 03:20:37;;;;;;;19.48;16.67;;;;;;;19.61;62.00;100443.13;5072216;28;20496;-66
2022/08/30 03:23:04;;;;;;;21.13;17.65;;;;;;;19.28;62.04;100398.56;5072363;28;20453;-66
2022/08/30 03:25:32;;;;;;;21.20;16.98;;;;;;;19.49;61.84;100443.88;5070647;28;20091;-66
2022/08/30 03:28:00;;;;;;;19.65;16.40;;;;;;;19.53;61.86;100439.19;5062910;28;20131;-66
2022/08/30 03:30:27;;;;;;;21.73;16.50;;;;;;;19.52;61.72;100437.53;5070523;28;20095;-67
2022/08/30 03:32:54;;;;;;;25.42;18.73;;;;;;;19.58;61.80;100447.47;5071005;28;20072;-67
2022/08/30 03:35:22;;;;;;;23.17;17.90;;;;;;;19.51;61.83;100438.69;5069193;28;20054;-67
2022/08/30 03:37:49;;;;;;;28.27;18.73;;;;;;;19.48;61.73;100453.53;5067687;28;20053;-65
2022/08/30 03:40:23;;;;;;;23.60;20.02;;;;;;;19.44;61.87;100440.41;5067725;28;20129;-66
2022/08/30 03:42:51;;;;;;;27.88;18.23;;;;;;;19.26;61.90;100420.69;5063674;28;20044;-65
2022/08/30 03:45:18;;;;;;;29.23;18.23;;;;;;;19.27;62.00;100424.34;5062332;28;20059;-66
2022/08/30 03:47:45;;;;;;;22.23;17.88;;;;;;;19.18;62.16;100416.75;5071530;28;20544;-66
2022/08/30 03:50:14;;;;;;;23.60;17.65;;;;;;;19.22;61.98;100427.41;5074289;28;20098;-66
2022/08/30 03:52:41;;;;;;;27.00;18.27;;;;;;;19.35;62.09;100441.31;5071649;28;20475;-67
2022/08/30 03:55:08;;;;;;;20.80;17.75;;;;;;;19.31;61.94;100447.97;5071948;28;20135;-66
2022/08/30 03:57:35;;;;;;;22.85;17.20;;;;;;;19.30;62.19;100443.50;5072799;28;20144;-66
2022/08/30 04:00:06;;;;;;;22.42;17.83;;;;;;;19.31;62.24;100442.31;5070251;28;20044;-67
2022/08/30 04:02:32;;;;;;;24.50;19.02;;;;;;;19.29;62.18;100450.34;5070173;28;20045;-67
2022/08/30 04:04:59;;;;;;;24.08;18.52;;;;;;;19.29;62.15;100439.84;5072948;28;20122;-67
2022/08/30 04:07:26;;;;;;;26.67;19.08;;;;;;;19.13;62.33;100422.59;5074608;28;20110;-67
2022/08/30 04:09:53;;;;;;;27.02;17.48;;;;;;;19.30;62.05;100449.97;5071287;28;20080;-67
2022/08/30 04:12:20;;;;;;;22.48;17.85;;;;;;;19.15;62.12;100442.91;5061072;28;20128;-67
2022/08/30 04:14:48;;;;;;;22.05;18.20;;;;;;;18.92;62.13;100407.56;5065564;28;20037;-66
2022/08/30 04:17:15;;;;;;;25.30;18.20;;;;;;;19.17;62.21;100468.88;5069288;28;20076;-66
2022/08/30 04:19:42;;;;;;;26.38;19.80;;;;;;;19.06;62.16;100442.13;5072744;28;20094;-67
2022/08/30 04:22:09;;;;;;;19.15;17.25;;;;;;;19.11;62.04;100458.06;5063786;28;20566;-66
2022/08/30 04:24:40;;;;;;;23.33;18.15;;;;;;;18.95;61.92;100435.19;5066302;28;20472;-66
2022/08/30 04:27:07;;;;;;;27.40;19.38;;;;;;;19.05;62.19;100457.44;5068845;28;20091;-66
2022/08/30 04:29:35;;;;;;;20.65;18.17;;;;;;;18.85;62.18;100453.38;5070923;28;20087;-66
2022/08/30 04:32:02;;;;;;;23.60;21.52;;;;;;;18.87;62.04;100467.16;5069063;28;20077;-65
2022/08/30 04:34:29;;;;;;;21.20;17.08;;;;;;;18.90;62.15;100477.81;5070096;28;20048;-67
2022/08/30 04:36:55;;;;;;;21.70;17.95;;;;;;;18.84;62.25;100479.19;5066497;28;20076;-66
2022/08/30 04:39:24;;;;;;;22.50;20.15;;;;;;;18.75;63.02;100467.06;5071473;28;20060;-66
2022/08/30 04:41:51;;;;;;;21.02;18.65;;;;;;;18.74;62.96;100468.25;5063910;28;20091;-66
2022/08/30 04:44:17;;;;;;;22.83;18.42;;;;;;;18.88;63.31;100481.00;5067628;28;20501;-67
2022/08/30 04:46:45;;;;;;;26.80;18.10;;;;;;;18.92;63.38;100473.47;5071361;28;20045;-67
2022/08/30 04:49:12;;;;;;;23.50;17.70;;;;;;;18.96;63.14;100456.66;5071142;28;20045;-66
2022/08/30 04:51:39;;;;;;;20.63;15.48;;;;;;;19.18;62.83;100484.69;5068453;28;20127;-67
2022/08/30 04:54:06;;;;;;;21.08;15.75;;;;;;;19.09;63.15;100471.75;5069172;28;20450;-67
2022/08/30 04:56:33;;;;;;;20.92;15.57;;;;;;;19.18;62.92;100484.69;5066564;28;20241;-67
2022/08/30 04:59:00;;;;;;;17.85;15.32;;;;;;;19.08;62.97;100465.28;5066563;28;20135;-66
2022/08/30 05:01:30;;;;;;;16.23;13.95;;;;;;;19.15;62.68;100468.41;5066598;28;20131;-66
2022/08/30 05:04:03;;;;;;;16.38;14.85;;;;;;;19.03;62.55;100464.63;5073164;28;20063;-67
2022/08/30 05:06:30;;;;;;;14.23;13.02;;;;;;;19.20;62.75;100486.34;5071958;28;20132;-66
2022/08/30 05:08:59;;;;;;;13.63;12.32;;;;;;;19.20;62.67;100490.00;5070722;28;20076;-66
2022/08/30 05:11:27;;;;;;;15.48;13.48;;;;;;;19.17;62.79;100488.69;5071655;28;20091;-67
2022/08/30 05:13:54;;;;;;;14.07;12.68;;;;;;;19.13;62.58;100482.03;5071253;28;20080;-66
2022/08/30 05:16:23;;;;;;;14.65;13.20;;;;;;;18.98;63.09;100476.97;5066014;28;20055;-66
2022/08/30 05:18:51;;;;;;;21.63;13.57;;;;;;;19.00;63.07;100480.28;5067556;28;20052;-66
2022/08/30 05:21:26;;;;;;;13.55;12.55;;;;;;;19.00;63.05;100471.78;5067378;28;20126;-66
2022/08/30 05:23:56;;;;;;;13.35;12.10;;;;;;;19.00;63.29;100485.94;5066757;28;20129;-66
2022/08/30 05:26:30;;;;;;;14.07;12.80;;;;;;;18.97;63.12;100482.94;5067278;28;20095;-67
2022/08/30 05:28:57;;;;;;;13.93;12.63;;;;;;;19.03;62.74;100484.44;5072242;28;20106;-66
2022/08/30 05:31:30;;;;;;;14.02;12.73;;;;;;;18.93;62.95;100485.63;5068763;28;20855;-66
2022/08/30 05:33:57;;;;;;;16.30;12.02;;;;;;;18.74;63.03;100471.06;5070730;28;20165;-66
2022/08/30 05:36:27;;;;;;;13.27;12.27;;;;;;;18.79;63.26;100502.00;5071014;28;20094;-65
2022/08/30 05:38:55;;;;;;;13.35;12.25;;;;;;;18.47;63.25;100473.09;5071603;28;20082;-66
2022/08/30 05:41:23;;;;;;;13.85;12.50;;;;;;;18.68;63.01;100476.84;5072274;28;20045;-68
2022/08/30 05:43:54;;;;;;;13.45;12.30;;;;;;;18.83;62.93;100503.78;5066473;28;20531;-65
2022/08/30 05:46:21;;;;;;;13.77;12.60;;;;;;;18.53;63.51;100485.03;5066211;28;20064;-66
2022/08/30 05:48:49;;;;;;;13.45;12.35;;;;;;;18.82;62.94;100526.78;5068957;28;20053;-66
2022/08/30 05:51:22;;;;;;;15.10;14.00;;;;;;;18.89;63.23;100515.78;5066148;28;20139;-65
2022/08/30 05:53:52;;;;;;;15.07;13.73;;;;;;;18.92;62.84;100520.75;5070176;28;20077;-65
2022/08/30 05:56:24;;;;;;;15.13;13.75;;;;;;;18.86;62.73;100524.94;5066870;28;20049;-67
2022/08/30 05:58:51;;;;;;;14.95;13.75;;;;;;;19.00;62.63;100530.38;5065179;28;20488;-66
2022/08/30 06:01:21;;;;;;;16.60;15.48;;;;;;;18.74;62.86;100507.84;5065476;28;20131;-66
2022/08/30 06:03:48;;;;;;;15.25;14.18;;;;;;;18.65;63.38;100522.78;5063137;28;20420;-65
2022/08/30 06:06:15;;;;;;;15.50;14.07;;;;;;;18.54;63.61;100529.13;5062983;28;20048;-66
2022/08/30 06:08:44;;;;;;;14.25;13.30;;;;;;;18.47;63.92;100544.63;5067777;28;20135;-65
2022/08/30 06:11:16;;;;;;;14.93;13.80;;;;;;;18.47;63.89;100540.97;5065499;28;20147;-65
2022/08/30 06:13:43;;;;;;;16.20;14.85;;;;;;;18.80;63.28;100558.22;5065944;28;20135;-66
2022/08/30 06:16:11;;;;;;;15.80;14.52;;;;;;;18.91;62.67;100547.41;5061850;28;20135;-67
2022/08/30 06:18:38;;;;;;;15.10;13.30;;;;;;;19.10;62.37;100559.16;5065416;28;20122;-68
2022/08/30 06:21:06;;;;;;;16.33;14.82;;;;;;;18.96;62.41;100544.38;5058645;28;20052;-68
2022/08/30 06:23:33;;;;;;;17.27;15.88;;;;;;;19.25;62.41;100582.41;5065056;28;20109;-69
2022/08/30 06:26:06;;;;;;;14.40;13.10;;;;;;;19.36;62.33;100586.53;5060013;28;20074;-69
2022/08/30 06:28:34;;;;;;;14.35;13.05;;;;;;;19.50;62.09;100589.97;5063864;28;20135;-69
2022/08/30 06:31:05;;;;;;;17.42;15.95;;;;;;;19.46;62.19;100566.34;5067599;28;20131;-69
2022/08/30 06:33:33;;;;;;;14.35;13.13;;;;;;;19.61;62.16;100576.25;5071039;28;20059;-69
2022/08/30 06:36:11;;;;;;;13.95;12.77;;;;;;;19.83;61.89;100592.19;5067749;28;20140;-69
2022/08/30 06:38:39;;;;;;;14.32;12.95;;;;;;;20.00;61.88;100600.59;5062731;28;20188;-68
2022/08/30 06:41:12;;;;;;;15.93;14.30;;;;;;;20.02;61.76;100591.72;5065833;28;20057;-69
2022/08/30 06:43:39;;;;;;;13.60;12.40;;;;;;;20.08;61.51;100596.84;5060705;28;20167;-69
2022/08/30 06:57:45;;;;;;;14.60;13.13;;;;;;;20.48;61.14;100576.53;4930847;29;20134;-67
2022/08/30 07:00:17;;;;;;;14.27;12.77;;;;;;;20.83;60.70;100596.13;4933346;28;20125;-68
2022/08/30 07:02:44;;;;;;;14.32;12.70;;;;;;;21.21;60.00;100614.91;4985297;28;20065;-68
2022/08/30 07:05:15;;;;;;;15.10;13.80;;;;;;;21.35;59.98;100601.25;5006591;28;20056;-68
2022/08/30 07:07:44;;;;;;;15.82;14.45;;;;;;;21.57;59.76;100604.81;5007766;28;20183;-68
2022/08/30 07:10:13;;;;;;;17.00;15.63;;;;;;;21.78;58.82;100611.25;5003948;28;20262;-68
2022/08/30 07:12:40;;;;;;;17.08;15.57;;;;;;;21.83;58.71;100602.47;4987109;28;20199;-67
2022/08/30 07:15:08;;;;;;;20.08;17.92;;;;;;;22.11;58.66;100610.25;4981859;28;20137;-68
2022/08/30 07:20:20;;;;;;;16.40;14.60;;;;;;;22.41;58.00;100627.91;5000207;28;20149;-68
2022/08/30 07:22:47;;;;;;;16.40;15.05;;;;;;;22.50;57.31;100627.78;5000615;28;20112;-69
2022/08/30 07:25:15;;;;;;;14.60;13.27;;;;;;;22.64;57.49;100609.13;4999643;28;20045;-68
2022/08/30 07:27:45;;;;;;;15.48;14.10;;;;;;;22.73;56.79;100611.78;4998939;28;20050;-68
2022/08/30 07:30:12;;;;;;;14.85;12.60;;;;;;;22.91;56.63;100637.97;4995776;28;20124;-67
2022/08/30 07:32:39;;;;;;;17.42;12.93;;;;;;;22.77;56.76;100637.53;4999714;28;20054;-66
2022/08/30 07:35:07;;;;;;;13.82;12.63;;;;;;;22.48;56.54;100591.97;5056606;28;20139;-69
2022/08/30 07:37:33;;;;;;;15.65;13.60;;;;;;;22.66;56.15;100626.63;5062968;28;20059;-68
2022/08/30 07:40:01;;;;;;;16.55;14.70;;;;;;;22.64;56.14;100609.13;5060259;28;20076;-68
2022/08/30 07:42:28;;;;;;;15.55;13.95;;;;;;;22.71;55.88;100626.41;5056576;28;20678;-69
2022/08/30 07:44:55;;;;;;;19.27;14.95;;;;;;;22.88;56.13;100641.53;5068240;28;20482;-68
2022/08/30 07:47:22;;;;;;;18.80;16.38;;;;;;;22.93;55.83;100633.56;5061918;28;20052;-69
2022/08/30 07:49:49;;;;;;;17.45;15.63;;;;;;;22.98;55.20;100651.63;5051690;28;20057;-68
2022/08/30 07:52:16;;;;;;;14.90;13.52;;;;;;;23.05;55.67;100654.66;5059134;28;20060;-70
2022/08/30 07:54:43;;;;;;;15.73;13.60;;;;;;;23.10;55.40;100646.66;5058901;28;20079;-70
2022/08/30 07:57:11;;;;;;;14.88;13.35;;;;;;;22.92;55.34;100631.91;5066296;28;20119;-69
2022/08/30 07:59:41;;;;;;;14.02;12.63;;;;;;;22.91;55.07;100635.13;5058845;28;20139;-73
2022/08/30 08:02:08;;;;;;;14.27;12.80;;;;;;;22.94;55.00;100640.94;5061584;28;20044;-68
2022/08/30 08:04:35;;;;;;;21.05;15.65;;;;;;;23.11;54.84;100656.03;5067961;28;20130;-67
2022/08/30 08:07:02;;;;;;;16.55;13.35;;;;;;;23.29;54.87;100650.88;5066013;28;20131;-68
2022/08/30 08:09:29;;;;;;;17.02;15.73;;;;;;;23.53;54.39;100670.66;5062484;28;20083;-69
2022/08/30 08:11:56;;;;;;;17.63;15.88;;;;;;;23.57;54.21;100656.50;5063275;28;20156;-70
2022/08/30 08:14:23;;;;;;;15.55;14.00;;;;;;;23.72;53.80;100658.56;5062551;28;20036;-71
2022/08/30 08:16:49;;;;;;;20.20;18.42;;;;;;;23.55;53.92;100647.47;5065465;28;20151;-68
2022/08/30 08:19:18;;;;;;;18.02;16.65;;;;;;;24.02;53.76;100650.38;5064222;28;20409;-69
2022/08/30 08:21:45;;;;;;;15.82;14.27;;;;;;;24.46;53.25;100660.81;5062059;28;20143;-68
2022/08/30 08:24:12;;;;;;;15.07;13.60;;;;;;;25.02;52.42;100658.38;5059894;28;20040;-70
2022/08/30 08:26:39;;;;;;;15.80;13.40;;;;;;;25.69;51.28;100674.41;5064174;28;20052;-69
2022/08/30 08:29:10;;;;;;;14.57;12.68;;;;;;;25.94;50.82;100681.44;5063843;28;20052;-68
2022/08/30 08:31:37;;;;;;;18.83;13.90;;;;;;;25.66;50.90;100647.41;5066744;28;20083;-69
2022/08/30 08:34:04;;;;;;;17.35;15.88;;;;;;;25.50;50.97;100676.13;5065449;28;20053;-70
2022/08/30 08:36:33;;;;;;;16.50;15.07;;;;;;;25.27;51.05;100670.38;5068820;28;20417;-70
2022/08/30 08:39:01;;;;;;;15.70;14.32;;;;;;;24.87;51.10;100673.56;5071165;28;20135;-69
2022/08/30 08:41:56;;;;;;;14.13;12.90;;;;;;;24.60;51.44;100664.00;5069598;28;20135;-69
2022/08/30 08:44:39;;;;;;;16.00;13.45;;;;;;;24.68;51.79;100690.69;5063394;28;20139;-70
2022/08/30 08:47:34;;;;;;;16.17;14.57;;;;;;;24.77;51.13;100692.13;5062966;28;20048;-69
2022/08/30 08:50:05;;;;;;;16.80;14.13;;;;;;;24.65;51.50;100695.13;5066214;28;20076;-70
2022/08/30 08:55:49;;;;;;;18.58;14.80;;;;;;;25.23;51.13;100689.47;5068265;28;20059;-69
2022/08/30 08:58:26;;;;;;;15.82;13.52;;;;;;;25.59;50.57;100693.03;5071952;28;20103;-70
2022/08/30 09:00:56;;;;;;;12.73;11.35;;;;;;;25.86;49.89;100693.97;5071471;28;20088;-70
2022/08/30 09:03:26;;;;;;;13.52;12.18;;;;;;;26.15;49.62;100703.03;5072810;28;20044;-69
2022/08/30 09:05:54;;;;;;;14.38;13.07;;;;;;;25.95;49.36;100705.16;5071560;28;20084;-69
2022/08/30 09:08:22;;;;;;;18.13;12.90;;;;;;;25.61;49.75;100707.78;5070833;28;20226;-69
2022/08/30 09:11:15;;;;;;;13.40;12.02;;;;;;;25.45;49.69;100707.88;5069318;28;20049;-69
2022/08/30 09:13:42;;;;;;;15.00;13.40;;;;;;;25.55;49.89;100711.34;5071716;28;20095;-68
2022/08/30 09:16:46;;;;;;;13.23;12.00;;;;;;;25.47;49.96;100705.47;5072387;28;20471;-69
2022/08/30 09:19:57;;;;;;;14.32;13.10;;;;;;;25.17;50.10;100693.84;5063174;28;20055;-69
2022/08/30 09:22:37;;;;;;;13.90;12.55;;;;;;;25.12;50.06;100685.56;5048939;28;20560;-68
2022/08/30 09:25:05;;;;;;;13.07;11.88;;;;;;;25.33;49.97;100710.06;5069458;28;20462;-69
2022/08/30 09:27:37;;;;;;;15.45;13.27;;;;;;;25.26;49.62;100679.31;5063526;28;20084;-69
2022/08/30 09:30:14;;;;;;;13.35;12.32;;;;;;;25.25;49.27;100691.94;5069023;28;20056;-68
2022/08/30 09:33:04;;;;;;;12.13;11.27;;;;;;;25.18;49.54;100701.19;5072500;28;20084;-69
2022/08/30 09:35:35;;;;;;;14.48;12.68;;;;;;;25.15;49.21;100690.53;5070807;28;20473;-69
2022/08/30 09:38:06;;;;;;;15.85;14.55;;;;;;;25.26;49.14;100685.88;5071606;28;20131;-69
2022/08/30 09:40:38;;;;;;;16.52;15.35;;;;;;;25.33;49.38;100696.59;5066670;28;20461;-68
2022/08/30 09:43:18;;;;;;;12.63;11.32;;;;;;;25.29;49.42;100687.94;5069214;28;20044;-69
2022/08/30 09:45:48;;;;;;;14.68;11.93;;;;;;;25.05;49.24;100673.94;5065736;28;20136;-68
2022/08/30 09:48:39;;;;;;;13.80;12.35;;;;;;;24.95;49.48;100680.25;5066702;28;20092;-68
2022/08/30 09:51:14;;;;;;;16.00;13.52;;;;;;;25.19;49.53;100702.03;5067301;28;20052;-69
2022/08/30 09:53:59;;;;;;;12.63;11.32;;;;;;;25.21;49.01;100706.16;5069634;28;20448;-69
2022/08/30 09:57:11;;;;;;;13.10;11.75;;;;;;;25.28;49.36;100700.59;5064603;28;20412;-69
2022/08/30 09:59:48;;;;;;;12.20;10.65;;;;;;;25.59;48.52;100692.19;5071909;28;20053;-69
2022/08/30 10:02:56;;;;;;;13.05;11.45;;;;;;;25.99;47.77;100695.44;5071571;28;20080;-69
2022/08/30 10:05:51;;;;;;;13.35;12.35;;;;;;;26.31;47.68;100700.03;5037513;28;20147;-69
2022/08/30 10:08:38;;;;;;;12.75;11.75;;;;;;;26.31;47.03;100665.69;5062824;28;20144;-69
2022/08/30 10:11:38;;;;;;;12.23;11.45;;;;;;;27.02;46.31;100683.91;5071671;28;20200;-69
2022/08/30 10:14:28;;;;;;;14.82;13.32;;;;;;;27.63;45.77;100688.34;5060751;28;20084;-69
2022/08/30 10:17:04;;;;;;;15.90;14.55;;;;;;;28.17;44.64;100685.16;5058137;28;20061;-69
2022/08/30 10:19:50;;;;;;;13.88;12.27;;;;;;;28.81;43.47;100694.25;5071251;28;20416;-69
2022/08/30 10:22:35;;;;;;;11.95;10.95;;;;;;;29.14;42.17;100698.16;5069687;28;20049;-68
2022/08/30 10:25:34;;;;;;;12.40;11.43;;;;;;;29.64;42.03;100669.56;5080735;28;20080;-68
2022/08/30 10:28:10;;;;;;;14.23;12.95;;;;;;;29.85;41.36;100686.88;5082361;28;20570;-68
2022/08/30 10:30:41;;;;;;;11.57;10.68;;;;;;;29.82;40.91;100693.44;5071581;28;20087;-69
2022/08/30 10:33:20;;;;;;;12.23;11.23;;;;;;;30.20;40.18;100679.50;5070475;28;20124;-68
2022/08/30 10:36:01;;;;;;;11.95;10.82;;;;;;;30.69;39.36;100692.19;5067310;28;20616;-68
2022/08/30 10:38:47;;;;;;;12.90;12.07;;;;;;;30.71;39.52;100668.72;5071604;28;20079;-69
2022/08/30 10:41:35;;;;;;;10.57;9.95;;;;;;;30.96;38.65;100683.09;5039152;28;20171;-69
2022/08/30 10:44:18;;;;;;;12.07;11.38;;;;;;;30.65;38.15;100676.97;5062808;28;20135;-69
2022/08/30 10:47:01;;;;;;;10.65;9.90;;;;;;;29.99;38.26;100689.75;5066966;28;20040;-69
2022/08/30 10:49:35;;;;;;;14.07;12.90;;;;;;;29.64;39.20;100681.06;5068829;28;20155;-69
2022/08/30 10:52:21;;;;;;;13.00;11.93;;;;;;;29.31;39.81;100685.91;5069686;28;20080;-69
2022/08/30 10:55:00;;;;;;;12.02;11.00;;;;;;;28.91;40.03;100669.69;5069173;28;20339;-68
2022/08/30 10:57:27;;;;;;;10.30;9.57;;;;;;;28.62;40.08;100685.94;5065405;28;20510;-69
2022/08/30 11:00:00;;;;;;;12.68;11.60;;;;;;;28.47;39.54;100682.97;5068934;28;20060;-69
2022/08/30 11:02:55;;;;;;;13.93;12.70;;;;;;;28.29;41.00;100693.47;5066941;28;20045;-68
2022/08/30 11:06:01;;;;;;;17.15;15.65;;;;;;;27.62;42.73;100695.31;5069047;28;20048;-69
2022/08/30 11:08:52;;;;;;;13.55;12.32;;;;;;;27.21;43.14;100690.72;5081500;28;20057;-69
2022/08/30 11:11:56;;;;;;;13.38;12.27;;;;;;;27.11;43.91;100689.34;5070075;28;20143;-69
2022/08/30 11:14:24;;;;;;;14.40;13.20;;;;;;;26.91;45.16;100692.38;5062396;28;20123;-70
2022/08/30 11:16:54;;;;;;;;;;;;;;;26.90;45.60;100693.56;5069326;28;20048;-69
2022/08/30 11:19:47;;;;;;;12.77;11.68;;;;;;;27.68;45.64;100686.34;5076424;28;20262;-69
2022/08/30 11:22:14;;;;;;;14.23;12.75;;;;;;;28.70;45.28;100697.06;5064446;28;20075;-70
2022/08/30 11:24:56;;;;;;;14.52;13.45;;;;;;;29.35;44.11;100686.72;5069061;28;20087;-68
2022/08/30 11:27:50;;;;;;;13.95;12.50;;;;;;;29.36;44.36;100688.38;5068889;28;20086;-69
2022/08/30 11:30:23;;;;;;;13.23;12.13;;;;;;;29.62;44.20;100686.44;5082935;28;20040;-69
2022/08/30 11:33:21;;;;;;;14.05;12.80;;;;;;;29.95;43.75;100680.31;5068040;28;20052;-69
2022/08/30 11:35:51;;;;;;;15.02;13.73;;;;;;;29.69;43.13;100678.63;5066398;28;20143;-69
2022/08/30 11:38:24;;;;;;;17.98;16.48;;;;;;;29.88;43.27;100690.97;5069691;28;20091;-69
2022/08/30 11:41:07;;;;;;;14.15;13.05;;;;;;;30.53;43.08;100669.59;5063348;28;20123;-69
2022/08/30 11:43:39;;;;;;;16.90;13.15;;;;;;;31.45;41.22;100684.13;5066085;28;20055;-69
2022/08/30 11:46:27;;;;;;;12.95;12.13;;;;;;;32.22;40.50;100676.16;5070335;28;20087;-69
2022/08/30 11:49:11;;;;;;;14.60;13.20;;;;;;;32.04;39.89;100675.50;5075860;28;20131;-68